Time,TemperatureF,DewpointF,PressureIn,WindDirection,WindDirectionDegrees,WindSpeedMPH,WindSpeedGustMPH,Humidity,HourlyPrecipIn,Conditions,Clouds,dailyrainin,SoftwareType,DateUTC
2013-02-21 00:00:00,27.5,19.0,29.96,WNW,286,7.0,17.0,70,0.00,,,0.00,meteohub,2013-02-21 05:00:00,
2013-02-21 00:05:00,27.5,18.7,29.96,WNW,283,8.0,17.0,69,0.00,,,0.00,meteohub,2013-02-21 05:05:00,
2013-02-21 00:10:00,27.5,18.3,29.96,WNW,294,8.0,15.0,68,0.00,,,0.00,meteohub,2013-02-21 05:10:00,
2013-02-21 00:15:00,27.3,18.9,29.96,WNW,298,7.0,15.0,70,0.00,,,0.00,meteohub,2013-02-21 05:15:00,
2013-02-21 00:20:00,27.3,18.1,29.96,West,266,8.0,14.0,68,0.00,,,0.00,meteohub,2013-02-21 05:20:00,
2013-02-21 00:25:00,27.3,19.6,29.96,West,277,11.0,13.0,72,0.00,,,0.00,meteohub,2013-02-21 05:25:00,
2013-02-21 00:30:00,27.3,18.5,29.96,WNW,302,10.0,16.0,69,0.00,,,0.00,meteohub,2013-02-21 05:30:00,
2013-02-21 00:35:00,27.3,18.5,29.96,NW,304,6.0,18.0,69,0.00,,,0.00,meteohub,2013-02-21 05:35:00,
2013-02-21 00:40:00,27.3,18.1,29.96,WNW,300,10.0,18.0,68,0.00,,,0.00,meteohub,2013-02-21 05:40:00,
2013-02-21 00:45:00,27.3,18.9,29.96,WNW,289,8.0,18.0,70,0.00,,,0.00,meteohub,2013-02-21 05:45:00,
2013-02-21 00:50:00,27.3,18.9,29.95,West,264,13.0,17.0,70,0.00,,,0.00,meteohub,2013-02-21 05:50:00,
2013-02-21 00:56:00,27.3,19.2,29.96,NW,326,8.0,17.0,71,0.00,,,0.00,meteohub,2013-02-21 05:56:00,
2013-02-21 01:01:00,27.5,19.4,29.96,WNW,291,9.0,17.0,71,0.00,,,0.00,meteohub,2013-02-21 06:01:00,
2013-02-21 01:06:00,27.5,19.4,29.96,WNW,294,6.0,17.0,71,0.00,,,0.00,meteohub,2013-02-21 06:06:00,
2013-02-21 01:11:00,27.5,19.4,29.96,NW,310,12.0,16.0,71,0.00,,,0.00,meteohub,2013-02-21 06:11:00,
2013-02-21 01:16:00,27.5,19.0,29.96,NW,314,12.0,16.0,70,0.00,,,0.00,meteohub,2013-02-21 06:16:00,
2013-02-21 01:21:00,27.5,19.0,29.96,West,274,10.0,17.0,70,0.00,,,0.00,meteohub,2013-02-21 06:21:00,
2013-02-21 01:26:00,27.5,19.4,29.96,NW,321,9.0,17.0,71,0.00,,,0.00,meteohub,2013-02-21 06:26:00,
2013-02-21 01:31:00,27.7,19.2,29.96,WNW,300,12.0,17.0,70,0.00,,,0.00,meteohub,2013-02-21 06:31:00,
2013-02-21 01:36:00,27.7,19.6,29.96,WNW,301,10.0,17.0,71,0.00,,,0.00,meteohub,2013-02-21 06:36:00,
2013-02-21 01:41:00,27.3,19.2,29.96,WNW,287,9.0,17.0,71,0.00,,,0.00,meteohub,2013-02-21 06:41:00,
2013-02-21 01:46:00,27.3,19.8,29.96,NW,316,7.0,16.0,73,0.00,,,0.00,meteohub,2013-02-21 06:46:00,
2013-02-21 01:51:00,27.3,19.8,29.96,West,274,8.0,16.0,73,0.00,,,0.00,meteohub,2013-02-21 06:51:00,
2013-02-21 01:56:00,27.3,18.5,29.96,WNW,284,7.0,14.0,69,0.00,,,0.00,meteohub,2013-02-21 06:56:00,
2013-02-21 02:01:00,27.3,18.5,29.96,NW,311,6.0,16.0,69,0.00,,,0.00,meteohub,2013-02-21 07:01:00,
2013-02-21 02:06:00,27.3,19.2,29.95,WNW,288,7.0,16.0,71,0.00,,,0.00,meteohub,2013-02-21 07:06:00,
2013-02-21 02:11:00,27.3,19.2,29.95,WNW,288,6.0,14.0,71,0.00,,,0.00,meteohub,2013-02-21 07:11:00,
2013-02-21 02:16:00,27.1,18.7,29.95,WNW,300,7.0,13.0,70,0.00,,,0.00,meteohub,2013-02-21 07:16:00,
2013-02-21 02:21:00,27.1,19.0,29.94,WNW,298,6.0,12.0,71,0.00,,,0.00,meteohub,2013-02-21 07:21:00,
2013-02-21 02:26:00,27.0,18.9,29.95,West,276,5.0,12.0,71,0.00,,,0.00,meteohub,2013-02-21 07:26:00,
2013-02-21 02:31:00,27.1,19.0,29.94,WNW,287,9.0,11.0,71,0.00,,,0.00,meteohub,2013-02-21 07:31:00,
2013-02-21 02:36:00,27.1,19.0,29.94,West,276,12.0,12.0,71,0.00,,,0.00,meteohub,2013-02-21 07:36:00,
2013-02-21 02:41:00,27.1,19.4,29.95,WNW,283,6.0,16.0,72,0.00,,,0.00,meteohub,2013-02-21 07:41:00,
2013-02-21 02:46:00,27.1,19.4,29.95,WNW,288,10.0,16.0,72,0.00,,,0.00,meteohub,2013-02-21 07:46:00,
2013-02-21 02:51:00,27.1,19.0,29.95,WNW,284,8.0,16.0,71,0.00,,,0.00,meteohub,2013-02-21 07:51:00,
2013-02-21 02:56:00,27.1,19.4,29.95,West,277,8.0,12.0,72,0.00,,,0.00,meteohub,2013-02-21 07:56:00,
2013-02-21 03:01:00,27.1,18.7,29.95,WNW,284,9.0,12.0,70,0.00,,,0.00,meteohub,2013-02-21 08:01:00,
2013-02-21 03:06:00,27.1,19.4,29.96,West,274,5.0,13.0,72,0.00,,,0.00,meteohub,2013-02-21 08:06:00,
2013-02-21 03:11:00,27.1,19.0,29.96,West,276,7.0,13.0,71,0.00,,,0.00,meteohub,2013-02-21 08:11:00,
2013-02-21 03:16:00,27.1,19.0,29.96,West,280,6.0,12.0,71,0.00,,,0.00,meteohub,2013-02-21 08:16:00,
2013-02-21 03:21:00,27.1,19.0,29.96,WNW,291,13.0,13.0,71,0.00,,,0.00,meteohub,2013-02-21 08:21:00,
2013-02-21 03:26:00,27.1,19.0,29.96,West,278,6.0,13.0,71,0.00,,,0.00,meteohub,2013-02-21 08:26:00,
2013-02-21 03:31:00,27.1,19.6,29.96,West,276,6.0,13.0,73,0.00,,,0.00,meteohub,2013-02-21 08:31:00,
2013-02-21 03:36:00,27.1,19.4,29.96,WNW,300,7.0,13.0,72,0.00,,,0.00,meteohub,2013-02-21 08:36:00,
2013-02-21 03:41:00,27.0,18.9,29.96,NW,309,8.0,10.0,71,0.00,,,0.00,meteohub,2013-02-21 08:41:00,
2013-02-21 03:46:00,27.0,19.2,29.96,WNW,295,8.0,12.0,72,0.00,,,0.00,meteohub,2013-02-21 08:46:00,
2013-02-21 03:51:00,27.0,18.9,29.96,WNW,291,8.0,12.0,71,0.00,,,0.00,meteohub,2013-02-21 08:51:00,
2013-02-21 03:56:00,27.0,19.4,29.96,WNW,294,6.0,12.0,73,0.00,,,0.00,meteohub,2013-02-21 08:56:00,
2013-02-21 04:01:00,27.0,19.2,29.96,WNW,287,8.0,15.0,72,0.00,,,0.00,meteohub,2013-02-21 09:01:00,
2013-02-21 04:06:00,27.0,19.2,29.96,NNW,328,7.0,15.0,72,0.00,,,0.00,meteohub,2013-02-21 09:06:00,
2013-02-21 04:11:00,26.8,19.0,29.96,West,280,9.0,14.0,72,0.00,,,0.00,meteohub,2013-02-21 09:11:00,
2013-02-21 04:16:00,26.8,19.0,29.96,WNW,298,8.0,15.0,72,0.00,,,0.00,meteohub,2013-02-21 09:16:00,
2013-02-21 04:21:00,26.8,19.6,29.96,WNW,290,6.0,15.0,74,0.00,,,0.00,meteohub,2013-02-21 09:21:00,
2013-02-21 04:26:00,26.6,18.5,29.96,West,271,10.0,13.0,71,0.00,,,0.00,meteohub,2013-02-21 09:26:00,
2013-02-21 04:31:00,26.8,19.6,29.96,NW,305,5.0,13.0,74,0.00,,,0.00,meteohub,2013-02-21 09:31:00,
2013-02-21 04:36:00,26.8,19.0,29.96,WNW,288,8.0,12.0,72,0.00,,,0.00,meteohub,2013-02-21 09:36:00,
2013-02-21 04:41:00,26.6,19.0,29.96,West,269,8.0,12.0,73,0.00,,,0.00,meteohub,2013-02-21 09:41:00,
2013-02-21 04:46:00,26.6,19.0,29.96,West,277,8.0,13.0,73,0.00,,,0.00,meteohub,2013-02-21 09:46:00,
2013-02-21 04:51:00,26.8,19.9,29.97,NW,305,9.0,13.0,75,0.00,,,0.00,meteohub,2013-02-21 09:51:00,
2013-02-21 04:56:00,26.8,19.2,29.97,WNW,296,8.0,14.0,73,0.00,,,0.00,meteohub,2013-02-21 09:56:00,
2013-02-21 05:01:00,26.8,19.9,29.97,WNW,293,8.0,14.0,75,0.00,,,0.00,meteohub,2013-02-21 10:01:00,
2013-02-21 05:06:00,25.9,18.7,29.97,WNW,290,6.0,18.0,74,0.00,,,0.00,meteohub,2013-02-21 10:06:00,
2013-02-21 05:11:00,25.9,18.7,29.97,WNW,290,6.0,18.0,74,0.00,,,0.00,meteohub,2013-02-21 10:11:00,
2013-02-21 05:16:00,25.9,18.7,29.98,North,-999,-999.0,18.0,74,0.00,,,0.00,meteohub,2013-02-21 10:16:00,
2013-02-21 07:17:00,26.6,18.5,29.98,North,-999,-999.0,-999.0,71,-99.99,,,0.00,meteohub,2013-02-21 12:17:00,
2013-02-21 07:22:00,26.4,18.7,29.98,North,-999,-999.0,-999.0,72,-99.99,,,0.00,meteohub,2013-02-21 12:22:00,
2013-02-21 07:27:00,26.6,18.5,29.98,WNW,288,8.0,-999.0,71,0.00,,,0.00,meteohub,2013-02-21 12:27:00,
2013-02-21 07:32:00,26.8,19.0,29.98,WNW,288,8.0,17.0,72,0.00,,,0.00,meteohub,2013-02-21 12:32:00,
2013-02-21 07:37:00,27.1,19.4,29.98,WNW,288,8.0,17.0,72,0.00,,,0.00,meteohub,2013-02-21 12:37:00,
2013-02-21 07:42:00,27.1,19.0,29.99,West,274,7.0,17.0,71,0.00,,,0.00,meteohub,2013-02-21 12:42:00,
2013-02-21 07:47:00,27.1,19.0,29.99,WNW,295,9.0,17.0,71,0.00,,,0.00,meteohub,2013-02-21 12:47:00,
2013-02-21 07:52:00,27.1,19.0,29.99,NW,324,9.0,17.0,71,0.00,,,0.00,meteohub,2013-02-21 12:52:00,
2013-02-21 07:57:00,27.1,18.7,29.99,WNW,295,7.0,15.0,70,0.00,,,0.00,meteohub,2013-02-21 12:57:00,
2013-02-21 08:03:00,27.1,18.3,29.99,WNW,296,7.0,15.0,69,0.00,,,0.00,meteohub,2013-02-21 13:03:00,
2013-02-21 08:08:00,27.3,19.2,29.98,NW,305,14.0,15.0,71,0.00,,,0.00,meteohub,2013-02-21 13:08:00,
2013-02-21 08:13:00,27.1,19.0,29.98,WNW,302,8.0,16.0,71,0.00,,,0.00,meteohub,2013-02-21 13:13:00,
2013-02-21 08:18:00,27.1,19.0,29.98,WNW,290,7.0,16.0,71,0.00,,,0.00,meteohub,2013-02-21 13:18:00,
2013-02-21 08:23:00,27.3,19.2,29.99,WNW,301,11.0,16.0,71,0.00,,,0.00,meteohub,2013-02-21 13:23:00,
2013-02-21 08:28:00,27.3,19.2,29.99,WNW,303,8.0,13.0,71,0.00,,,0.00,meteohub,2013-02-21 13:28:00,
2013-02-21 08:33:00,27.3,19.2,29.99,WNW,287,9.0,13.0,71,0.00,,,0.00,meteohub,2013-02-21 13:33:00,
2013-02-21 08:38:00,27.5,18.7,29.99,WNW,289,8.0,13.0,69,0.00,,,0.00,meteohub,2013-02-21 13:38:00,
2013-02-21 08:43:00,27.7,19.2,29.98,WNW,288,11.0,13.0,70,0.00,,,0.00,meteohub,2013-02-21 13:43:00,
2013-02-21 08:48:00,27.9,19.4,29.98,West,276,7.0,18.0,70,0.00,,,0.00,meteohub,2013-02-21 13:48:00,
2013-02-21 08:53:00,27.9,18.7,29.98,WNW,303,8.0,18.0,68,0.00,,,0.00,meteohub,2013-02-21 13:53:00,
2013-02-21 08:58:00,27.7,18.9,29.97,NW,308,9.0,18.0,69,0.00,,,0.00,meteohub,2013-02-21 13:58:00,
2013-02-21 09:03:00,27.7,18.5,29.97,WNW,287,11.0,16.0,68,0.00,,,0.00,meteohub,2013-02-21 14:03:00,
2013-02-21 09:08:00,27.3,18.9,29.97,WNW,283,7.0,16.0,70,0.00,,,0.00,meteohub,2013-02-21 14:08:00,
2013-02-21 09:13:00,27.1,18.7,29.97,WNW,295,8.0,18.0,70,0.00,,,0.00,meteohub,2013-02-21 14:13:00,
2013-02-21 09:18:00,27.3,18.5,29.97,WNW,284,11.0,18.0,69,0.00,,,0.00,meteohub,2013-02-21 14:18:00,
2013-02-21 09:23:00,27.5,19.0,29.97,WNW,291,9.0,13.0,70,0.00,,,0.00,meteohub,2013-02-21 14:23:00,
2013-02-21 09:28:00,27.7,18.9,29.97,West,281,8.0,13.0,69,0.00,,,0.00,meteohub,2013-02-21 14:28:00,
2013-02-21 09:33:00,27.7,18.5,29.97,NW,321,13.0,13.0,68,0.00,,,0.00,meteohub,2013-02-21 14:33:00,
2013-02-21 09:38:00,27.7,18.1,29.97,WNW,291,7.0,13.0,67,0.00,,,0.00,meteohub,2013-02-21 14:38:00,
2013-02-21 09:43:00,27.9,18.3,29.97,WNW,284,8.0,14.0,67,0.00,,,0.00,meteohub,2013-02-21 14:43:00,
2013-02-21 09:48:00,27.9,18.3,29.97,NNW,335,8.0,16.0,67,0.00,,,0.00,meteohub,2013-02-21 14:48:00,
2013-02-21 09:53:00,28.0,18.5,29.97,NW,317,10.0,22.0,67,0.00,,,0.00,meteohub,2013-02-21 14:53:00,
2013-02-21 09:58:00,28.0,18.5,29.97,NW,308,10.0,22.0,67,0.00,,,0.00,meteohub,2013-02-21 14:58:00,
2013-02-21 10:03:00,28.0,18.9,29.97,WNW,300,9.0,22.0,68,0.00,,,0.00,meteohub,2013-02-21 15:03:00,
2013-02-21 10:08:00,28.0,18.5,29.97,WNW,287,9.0,17.0,67,0.00,,,0.00,meteohub,2013-02-21 15:08:00,
2013-02-21 10:13:00,28.2,19.0,29.97,WNW,300,8.0,17.0,68,0.00,,,0.00,meteohub,2013-02-21 15:13:00,
2013-02-21 10:18:00,28.4,19.2,29.97,WNW,298,8.0,17.0,68,0.00,,,0.00,meteohub,2013-02-21 15:18:00,
2013-02-21 10:23:00,28.6,19.4,29.98,NW,321,10.0,19.0,68,0.00,,,0.00,meteohub,2013-02-21 15:23:00,
2013-02-21 10:28:00,28.4,18.1,29.97,West,281,10.0,19.0,65,0.00,,,0.00,meteohub,2013-02-21 15:28:00,
2013-02-21 10:33:00,28.4,18.1,29.98,NW,307,12.0,19.0,65,0.00,,,0.00,meteohub,2013-02-21 15:33:00,
2013-02-21 10:38:00,28.8,18.5,29.98,NW,304,11.0,22.0,65,0.00,,,0.00,meteohub,2013-02-21 15:38:00,
2013-02-21 10:43:00,28.6,18.7,29.97,WNW,283,10.0,22.0,66,0.00,,,0.00,meteohub,2013-02-21 15:43:00,
2013-02-21 10:48:00,28.9,19.0,29.97,NW,312,7.0,16.0,66,0.00,,,0.00,meteohub,2013-02-21 15:48:00,
2013-02-21 10:53:00,29.1,19.9,29.97,WNW,293,9.0,19.0,68,0.00,,,0.00,meteohub,2013-02-21 15:53:00,
2013-02-21 10:58:00,29.1,18.9,29.97,West,274,8.0,19.0,65,0.00,,,0.00,meteohub,2013-02-21 15:58:00,
2013-02-21 11:03:00,29.3,20.5,29.97,NW,314,12.0,15.0,69,0.00,,,0.00,meteohub,2013-02-21 16:03:00,
2013-02-21 11:08:00,29.3,19.0,29.96,WNW,295,7.0,16.0,65,0.00,,,0.00,meteohub,2013-02-21 16:08:00,
2013-02-21 11:13:00,29.5,19.6,29.97,WNW,301,9.0,18.0,66,0.00,,,0.00,meteohub,2013-02-21 16:13:00,
2013-02-21 11:18:00,29.5,19.9,29.97,West,281,6.0,18.0,67,0.00,,,0.00,meteohub,2013-02-21 16:18:00,
2013-02-21 11:23:00,29.7,19.4,29.97,WNW,287,13.0,18.0,65,0.00,,,0.00,meteohub,2013-02-21 16:23:00,
2013-02-21 11:28:00,29.8,19.9,29.97,WNW,289,10.0,17.0,66,0.00,,,0.00,meteohub,2013-02-21 16:28:00,
2013-02-21 11:33:00,29.8,19.6,29.97,NW,321,9.0,17.0,65,0.00,,,0.00,meteohub,2013-02-21 16:33:00,
2013-02-21 11:38:00,30.0,19.4,29.97,NW,322,8.0,17.0,64,0.00,,,0.00,meteohub,2013-02-21 16:38:00,
2013-02-21 11:43:00,30.2,19.0,29.97,NW,305,9.0,17.0,63,0.00,,,0.00,meteohub,2013-02-21 16:43:00,
2013-02-21 11:48:00,30.6,20.8,29.98,WNW,303,13.0,17.0,67,0.00,,,0.00,meteohub,2013-02-21 16:48:00,
2013-02-21 11:53:00,30.6,19.0,29.97,WNW,288,7.0,17.0,62,0.00,,,0.00,meteohub,2013-02-21 16:53:00,
2013-02-21 11:58:00,30.7,19.6,29.96,NW,308,10.0,15.0,63,0.00,,,0.00,meteohub,2013-02-21 16:58:00,
2013-02-21 12:03:00,30.9,20.1,29.96,WNW,301,10.0,16.0,64,0.00,,,0.00,meteohub,2013-02-21 17:03:00,
2013-02-21 12:08:00,30.9,19.8,29.96,WNW,298,9.0,17.0,63,0.00,,,0.00,meteohub,2013-02-21 17:08:00,
2013-02-21 12:13:00,30.9,20.1,29.96,WNW,287,9.0,17.0,64,0.00,,,0.00,meteohub,2013-02-21 17:13:00,
2013-02-21 12:18:00,31.3,20.1,29.96,WNW,293,12.0,17.0,63,0.00,,,0.00,meteohub,2013-02-21 17:18:00,
2013-02-21 12:23:00,31.3,20.1,29.95,WNW,291,13.0,16.0,63,0.00,,,0.00,meteohub,2013-02-21 17:23:00,
2013-02-21 12:28:00,31.5,20.7,29.95,NW,318,9.0,17.0,64,0.00,,,0.00,meteohub,2013-02-21 17:28:00,
2013-02-21 12:33:00,31.6,20.1,29.95,West,280,6.0,17.0,62,0.00,,,0.00,meteohub,2013-02-21 17:33:00,
2013-02-21 12:38:00,31.6,20.5,29.95,WNW,293,12.0,17.0,63,0.00,,,0.00,meteohub,2013-02-21 17:38:00,
2013-02-21 12:43:00,31.6,19.8,29.96,North,349,11.0,18.0,61,0.00,,,0.00,meteohub,2013-02-21 17:43:00,
2013-02-21 12:49:00,31.8,20.7,29.95,WNW,300,13.0,18.0,63,0.00,,,0.00,meteohub,2013-02-21 17:49:00,
2013-02-21 12:54:00,32.2,21.0,29.95,WNW,293,7.0,18.0,63,0.00,,,0.00,meteohub,2013-02-21 17:54:00,
2013-02-21 12:59:00,32.2,21.0,29.94,WNW,292,14.0,16.0,63,0.00,,,0.00,meteohub,2013-02-21 17:59:00,
2013-02-21 13:04:00,32.4,21.6,29.95,WNW,301,7.0,16.0,64,0.00,,,0.00,meteohub,2013-02-21 18:04:00,
2013-02-21 13:09:00,32.4,21.2,29.94,WNW,294,10.0,16.0,63,0.00,,,0.00,meteohub,2013-02-21 18:09:00,
2013-02-21 13:14:00,32.5,21.7,29.94,WNW,291,10.0,20.0,64,0.00,,,0.00,meteohub,2013-02-21 18:14:00,
2013-02-21 13:19:00,32.5,21.0,29.94,WNW,287,10.0,20.0,62,0.00,,,0.00,meteohub,2013-02-21 18:19:00,
2013-02-21 13:24:00,32.7,20.3,29.94,WNW,283,13.0,20.0,60,0.00,,,0.00,meteohub,2013-02-21 18:24:00,
2013-02-21 13:29:00,32.7,21.6,29.94,WNW,295,10.0,19.0,63,0.00,,,0.00,meteohub,2013-02-21 18:29:00,
2013-02-21 13:34:00,32.9,20.8,29.94,NW,321,13.0,19.0,61,0.00,,,0.00,meteohub,2013-02-21 18:34:00,
2013-02-21 13:39:00,33.1,21.6,29.94,WNW,295,16.0,19.0,62,0.00,,,0.00,meteohub,2013-02-21 18:39:00,
2013-02-21 13:44:00,33.1,21.9,29.94,WNW,291,13.0,19.0,63,0.00,,,0.00,meteohub,2013-02-21 18:44:00,
2013-02-21 13:49:00,33.1,21.6,29.94,WNW,301,7.0,19.0,62,0.00,,,0.00,meteohub,2013-02-21 18:49:00,
2013-02-21 13:54:00,33.1,21.9,29.94,WNW,300,10.0,19.0,63,0.00,,,0.00,meteohub,2013-02-21 18:54:00,
2013-02-21 13:59:00,33.3,22.1,29.94,NW,314,11.0,19.0,63,0.00,,,0.00,meteohub,2013-02-21 18:59:00,
2013-02-21 14:04:00,33.3,22.1,29.94,WNW,298,12.0,19.0,63,0.00,,,0.00,meteohub,2013-02-21 19:04:00,
2013-02-21 14:09:00,33.3,22.5,29.94,WNW,302,13.0,21.0,64,0.00,,,0.00,meteohub,2013-02-21 19:09:00,
2013-02-21 14:14:00,33.4,21.7,29.94,WNW,300,10.0,21.0,62,0.00,,,0.00,meteohub,2013-02-21 19:14:00,
2013-02-21 14:19:00,33.4,22.3,29.94,NW,314,9.0,21.0,63,0.00,,,0.00,meteohub,2013-02-21 19:19:00,
2013-02-21 14:24:00,33.4,23.0,29.95,NW,316,12.0,21.0,65,0.00,,,0.00,meteohub,2013-02-21 19:24:00,
2013-02-21 14:29:00,33.6,22.5,29.95,North,350,15.0,20.0,63,0.00,,,0.00,meteohub,2013-02-21 19:29:00,
2013-02-21 14:34:00,33.4,22.3,29.95,NNW,333,12.0,20.0,63,0.00,,,0.00,meteohub,2013-02-21 19:34:00,
2013-02-21 14:39:00,33.4,21.4,29.96,NNW,348,16.0,21.0,61,0.00,,,0.00,meteohub,2013-02-21 19:39:00,
2013-02-21 14:44:00,33.4,21.7,29.96,NW,316,11.0,21.0,62,0.00,,,0.00,meteohub,2013-02-21 19:44:00,
2013-02-21 14:49:00,33.4,21.7,29.96,NNW,341,15.0,21.0,62,0.00,,,0.00,meteohub,2013-02-21 19:49:00,
2013-02-21 14:54:00,33.4,21.7,29.96,WNW,303,8.0,19.0,62,0.00,,,0.00,meteohub,2013-02-21 19:54:00,
2013-02-21 14:59:00,33.6,22.8,29.96,WNW,300,12.0,19.0,64,0.00,,,0.00,meteohub,2013-02-21 19:59:00,
2013-02-21 15:04:00,33.4,21.4,29.96,NW,311,11.0,22.0,61,0.00,,,0.00,meteohub,2013-02-21 20:04:00,
2013-02-21 15:09:00,33.6,20.8,29.96,WNW,298,18.0,22.0,59,0.00,,,0.00,meteohub,2013-02-21 20:09:00,
2013-02-21 15:14:00,33.6,22.5,29.97,NW,311,16.0,22.0,63,0.00,,,0.00,meteohub,2013-02-21 20:14:00,
2013-02-21 15:19:00,33.6,22.8,29.97,NW,311,10.0,19.0,64,0.00,,,0.00,meteohub,2013-02-21 20:19:00,
2013-02-21 15:24:00,33.4,21.7,29.97,NNW,328,12.0,20.0,62,0.00,,,0.00,meteohub,2013-02-21 20:24:00,
2013-02-21 15:29:00,33.4,22.6,29.97,NNW,330,15.0,21.0,64,0.00,,,0.00,meteohub,2013-02-21 20:29:00,
2013-02-21 15:34:00,33.4,21.7,29.97,NW,314,19.0,23.0,62,0.00,,,0.00,meteohub,2013-02-21 20:34:00,
2013-02-21 15:39:00,33.3,21.7,29.98,NW,326,18.0,23.0,62,0.00,,,0.00,meteohub,2013-02-21 20:39:00,
2013-02-21 15:44:00,33.3,21.2,29.97,NW,318,13.0,23.0,61,0.00,,,0.00,meteohub,2013-02-21 20:44:00,
2013-02-21 15:49:00,33.3,21.7,29.98,NNW,342,14.0,25.0,62,0.00,,,0.00,meteohub,2013-02-21 20:49:00,
2013-02-21 15:54:00,33.3,22.5,29.98,NNW,338,11.0,25.0,64,0.00,,,0.00,meteohub,2013-02-21 20:54:00,
2013-02-21 15:59:00,33.3,22.1,29.98,NW,305,10.0,21.0,63,0.00,,,0.00,meteohub,2013-02-21 20:59:00,
2013-02-21 16:04:00,33.3,22.1,29.99,NW,317,11.0,20.0,63,0.00,,,0.00,meteohub,2013-02-21 21:04:00,
2013-02-21 16:09:00,33.4,22.6,29.99,NW,321,11.0,20.0,64,0.00,,,0.00,meteohub,2013-02-21 21:09:00,
2013-02-21 16:14:00,33.3,21.7,29.99,WNW,302,15.0,19.0,62,0.00,,,0.00,meteohub,2013-02-21 21:14:00,
2013-02-21 16:19:00,33.3,22.1,29.99,WNW,294,15.0,19.0,63,0.00,,,0.00,meteohub,2013-02-21 21:19:00,
2013-02-21 16:24:00,33.3,21.7,30.00,NNW,328,10.0,20.0,62,0.00,,,0.00,meteohub,2013-02-21 21:24:00,
2013-02-21 16:29:00,33.1,21.9,30.00,NW,319,15.0,20.0,63,0.00,,,0.00,meteohub,2013-02-21 21:29:00,
2013-02-21 16:34:00,32.9,21.7,30.01,NW,311,18.0,24.0,63,0.00,,,0.00,meteohub,2013-02-21 21:34:00,
2013-02-21 16:39:00,32.7,21.2,30.01,NW,309,12.0,24.0,62,0.00,,,0.00,meteohub,2013-02-21 21:39:00,
2013-02-21 16:44:00,32.7,21.6,30.01,WNW,302,10.0,24.0,63,0.00,,,0.00,meteohub,2013-02-21 21:44:00,
2013-02-21 16:49:00,32.5,21.0,30.02,NNW,337,10.0,21.0,62,0.00,,,0.00,meteohub,2013-02-21 21:49:00,
2013-02-21 16:54:00,32.4,21.2,30.02,NW,309,18.0,22.0,63,0.00,,,0.00,meteohub,2013-02-21 21:54:00,
2013-02-21 16:59:00,32.5,22.1,30.03,NNW,331,12.0,22.0,65,0.00,,,0.00,meteohub,2013-02-21 21:59:00,
2013-02-21 17:04:00,32.4,21.2,30.04,NW,307,13.0,23.0,63,0.00,,,0.00,meteohub,2013-02-21 22:04:00,
2013-02-21 17:09:00,32.2,21.4,30.04,WNW,293,15.0,23.0,64,0.00,,,0.00,meteohub,2013-02-21 22:09:00,
2013-02-21 17:14:00,32.0,21.2,30.04,NW,307,13.0,25.0,64,0.00,,,0.00,meteohub,2013-02-21 22:14:00,
2013-02-21 17:20:00,31.6,20.8,30.04,WNW,283,13.0,25.0,64,0.00,,,0.00,meteohub,2013-02-21 22:20:00,
2013-02-21 17:24:00,31.5,20.7,30.05,NW,307,16.0,26.0,64,0.00,,,0.00,meteohub,2013-02-21 22:24:00,
2013-02-21 17:30:00,31.3,20.5,30.05,NW,326,12.0,26.0,64,0.00,,,0.00,meteohub,2013-02-21 22:30:00,
2013-02-21 17:35:00,30.9,21.2,30.06,NNW,328,28.0,29.0,67,0.00,,,0.00,meteohub,2013-02-21 22:35:00,
2013-02-21 17:40:00,30.7,20.3,30.06,WNW,290,14.0,29.0,65,0.00,,,0.00,meteohub,2013-02-21 22:40:00,
2013-02-21 17:45:00,30.6,20.1,30.06,NW,326,13.0,29.0,65,0.00,,,0.00,meteohub,2013-02-21 22:45:00,
2013-02-21 17:50:00,30.4,19.9,30.06,NW,321,16.0,28.0,65,0.00,,,0.00,meteohub,2013-02-21 22:50:00,
2013-02-21 17:55:00,30.4,19.9,30.07,WNW,303,14.0,28.0,65,0.00,,,0.00,meteohub,2013-02-21 22:55:00,
2013-02-21 18:00:00,30.2,20.5,30.07,NW,314,13.0,28.0,67,0.00,,,0.00,meteohub,2013-02-21 23:00:00,
2013-02-21 18:05:00,30.0,20.1,30.08,NW,325,12.0,28.0,66,0.00,,,0.00,meteohub,2013-02-21 23:05:00,
2013-02-21 18:10:00,30.0,21.4,30.09,NNW,342,13.0,28.0,70,0.00,,,0.00,meteohub,2013-02-21 23:10:00,
2013-02-21 18:15:00,29.8,20.8,30.09,North,350,24.0,28.0,69,0.00,,,0.00,meteohub,2013-02-21 23:15:00,
2013-02-21 18:20:00,29.5,19.6,30.09,NNW,337,10.0,26.0,66,0.00,,,0.00,meteohub,2013-02-21 23:20:00,
2013-02-21 18:25:00,29.5,20.3,30.09,NW,318,18.0,28.0,68,0.00,,,0.00,meteohub,2013-02-21 23:25:00,
2013-02-21 18:30:00,29.1,19.2,30.10,NNW,338,26.0,31.0,66,0.00,,,0.00,meteohub,2013-02-21 23:30:00,
2013-02-21 18:35:00,28.9,19.4,30.10,NW,312,13.0,31.0,67,0.00,,,0.00,meteohub,2013-02-21 23:35:00,
2013-02-21 18:40:00,28.8,19.2,30.11,NW,321,12.0,31.0,67,0.00,,,0.00,meteohub,2013-02-21 23:40:00,
2013-02-21 18:45:00,28.6,19.4,30.11,WNW,285,23.0,30.0,68,0.00,,,0.00,meteohub,2013-02-21 23:45:00,
2013-02-21 18:50:00,28.6,19.4,30.12,NNW,339,10.0,33.0,68,0.00,,,0.00,meteohub,2013-02-21 23:50:00,
2013-02-21 18:55:00,28.2,18.7,30.12,NW,319,17.0,33.0,67,0.00,,,0.00,meteohub,2013-02-21 23:55:00,
2013-02-21 19:00:00,28.2,19.8,30.12,NW,317,16.0,33.0,70,0.00,,,0.00,meteohub,2013-02-22 00:00:00,
2013-02-21 19:05:00,28.0,19.9,30.12,NW,311,16.0,29.0,71,0.00,,,0.00,meteohub,2013-02-22 00:05:00,
2013-02-21 19:10:00,28.0,19.2,30.12,NW,316,11.0,29.0,69,0.00,,,0.00,meteohub,2013-02-22 00:10:00,
2013-02-21 19:15:00,28.0,19.6,30.12,NW,321,10.0,26.0,70,0.00,,,0.00,meteohub,2013-02-22 00:15:00,
2013-02-21 19:20:00,27.9,19.4,30.13,NNW,337,14.0,26.0,70,0.00,,,0.00,meteohub,2013-02-22 00:20:00,
2013-02-21 19:25:00,28.0,20.5,30.13,WNW,302,11.0,23.0,73,0.00,,,0.00,meteohub,2013-02-22 00:25:00,
2013-02-21 19:30:00,27.9,19.4,30.13,NNW,340,10.0,24.0,70,0.00,,,0.00,meteohub,2013-02-22 00:30:00,
2013-02-21 19:35:00,27.9,19.4,30.14,North,352,19.0,26.0,70,0.00,,,0.00,meteohub,2013-02-22 00:35:00,
2013-02-21 19:40:00,28.0,19.6,30.14,NNW,342,19.0,26.0,70,0.00,,,0.00,meteohub,2013-02-22 00:40:00,
2013-02-21 19:45:00,28.0,20.1,30.15,NNE,16,28.0,31.0,72,0.00,,,0.00,meteohub,2013-02-22 00:45:00,
2013-02-21 19:50:00,28.0,19.9,30.15,NW,312,25.0,32.0,71,0.00,,,0.00,meteohub,2013-02-22 00:50:00,
2013-02-21 19:55:00,28.0,19.6,30.16,NNW,328,12.0,32.0,70,0.00,,,0.00,meteohub,2013-02-22 00:55:00,
2013-02-21 20:00:00,28.0,19.9,30.16,North,354,21.0,32.0,71,0.00,,,0.00,meteohub,2013-02-22 01:00:00,
2013-02-21 20:05:00,27.9,19.0,30.15,NNE,20,26.0,26.0,69,0.00,,,0.00,meteohub,2013-02-22 01:05:00,
2013-02-21 20:10:00,27.9,19.9,30.16,North,354,24.0,31.0,72,0.00,,,0.00,meteohub,2013-02-22 01:10:00,
2013-02-21 20:15:00,27.9,19.9,30.17,NW,317,21.0,31.0,72,0.00,,,0.00,meteohub,2013-02-22 01:15:00,
2013-02-21 20:20:00,27.9,19.8,30.18,North,353,14.0,31.0,71,0.00,,,0.00,meteohub,2013-02-22 01:20:00,
2013-02-21 20:25:00,27.9,19.4,30.18,NNE,20,25.0,31.0,70,0.00,,,0.00,meteohub,2013-02-22 01:25:00,
2013-02-21 20:30:00,27.9,19.4,30.18,NW,326,13.0,31.0,70,0.00,,,0.00,meteohub,2013-02-22 01:30:00,
2013-02-21 20:35:00,27.9,19.0,30.19,NNW,335,16.0,29.0,69,0.00,,,0.00,meteohub,2013-02-22 01:35:00,
2013-02-21 20:40:00,27.9,19.8,30.19,NW,325,17.0,32.0,71,0.00,,,0.00,meteohub,2013-02-22 01:40:00,
2013-02-21 20:45:00,27.9,19.4,30.19,NNW,335,10.0,33.0,70,0.00,,,0.00,meteohub,2013-02-22 01:45:00,
2013-02-21 20:50:00,27.9,19.8,30.20,NNW,333,17.0,33.0,71,0.00,,,0.00,meteohub,2013-02-22 01:50:00,
2013-02-21 20:55:00,28.0,20.1,30.20,NW,318,15.0,33.0,72,0.00,,,0.00,meteohub,2013-02-22 01:55:00,
2013-02-21 21:00:00,28.0,19.9,30.20,WNW,295,13.0,30.0,71,0.00,,,0.00,meteohub,2013-02-22 02:00:00,
2013-02-21 21:05:00,28.0,20.1,30.21,NNW,344,24.0,29.0,72,0.00,,,0.00,meteohub,2013-02-22 02:05:00,
2013-02-21 21:10:00,28.0,20.1,30.21,NNE,12,22.0,30.0,72,0.00,,,0.00,meteohub,2013-02-22 02:10:00,
2013-02-21 21:15:00,28.0,20.5,30.21,NNW,335,10.0,30.0,73,0.00,,,0.00,meteohub,2013-02-22 02:15:00,
2013-02-21 21:20:00,28.2,20.7,30.22,NNW,339,24.0,30.0,73,0.00,,,0.00,meteohub,2013-02-22 02:20:00,
2013-02-21 21:26:00,28.0,20.1,30.21,NW,314,20.0,30.0,72,0.00,,,0.00,meteohub,2013-02-22 02:26:00,
2013-02-21 21:31:00,28.0,20.1,30.22,NW,312,19.0,29.0,72,0.00,,,0.00,meteohub,2013-02-22 02:31:00,
2013-02-21 21:35:00,28.0,20.1,30.22,NNW,340,22.0,31.0,72,0.00,,,0.00,meteohub,2013-02-22 02:35:00,
2013-02-21 21:41:00,28.0,20.1,30.22,NNW,331,13.0,31.0,72,0.00,,,0.00,meteohub,2013-02-22 02:41:00,
2013-02-21 21:46:00,28.0,20.1,30.22,North,353,13.0,31.0,72,0.00,,,0.00,meteohub,2013-02-22 02:46:00,
2013-02-21 21:51:00,28.0,20.8,30.23,NNW,330,14.0,27.0,74,0.00,,,0.00,meteohub,2013-02-22 02:51:00,
2013-02-21 21:56:00,28.2,21.4,30.23,NNW,331,18.0,27.0,75,0.00,,,0.00,meteohub,2013-02-22 02:56:00,
2013-02-21 22:01:00,28.2,21.0,30.24,WNW,288,11.0,26.0,74,0.00,,,0.00,meteohub,2013-02-22 03:01:00,
2013-02-21 22:06:00,28.2,21.0,30.24,North,351,25.0,32.0,74,0.00,,,0.00,meteohub,2013-02-22 03:06:00,
2013-02-21 22:11:00,28.0,20.5,30.24,NW,321,17.0,32.0,73,0.00,,,0.00,meteohub,2013-02-22 03:11:00,
2013-02-21 22:16:00,28.0,20.8,30.24,NW,324,11.0,32.0,74,0.00,,,0.00,meteohub,2013-02-22 03:16:00,
2013-02-21 22:21:00,28.0,20.5,30.24,NNW,333,22.0,25.0,73,0.00,,,0.00,meteohub,2013-02-22 03:21:00,
2013-02-21 22:26:00,27.9,20.3,30.24,NNW,331,25.0,27.0,73,0.00,,,0.00,meteohub,2013-02-22 03:26:00,
2013-02-21 22:31:00,28.0,21.2,30.24,NW,323,21.0,31.0,75,0.00,,,0.00,meteohub,2013-02-22 03:31:00,
2013-02-21 22:36:00,28.2,22.3,30.24,NNW,338,17.0,31.0,78,0.00,,,0.00,meteohub,2013-02-22 03:36:00,
2013-02-21 22:41:00,28.2,21.4,30.24,NNE,17,12.0,31.0,75,0.00,,,0.00,meteohub,2013-02-22 03:41:00,
2013-02-21 22:46:00,28.2,21.0,30.24,NNW,341,22.0,28.0,74,0.00,,,0.00,meteohub,2013-02-22 03:46:00,
2013-02-21 22:51:00,28.2,21.4,30.25,NW,321,21.0,33.0,75,0.00,,,0.00,meteohub,2013-02-22 03:51:00,
2013-02-21 22:56:00,28.2,21.4,30.25,NNW,340,25.0,33.0,75,0.00,,,0.00,meteohub,2013-02-22 03:56:00,
2013-02-21 23:01:00,28.6,21.9,30.26,NNW,339,22.0,33.0,76,0.00,,,0.00,meteohub,2013-02-22 04:01:00,
2013-02-21 23:07:00,28.4,21.7,30.26,NW,321,12.0,30.0,76,0.00,,,0.00,meteohub,2013-02-22 04:07:00,
2013-02-21 23:12:00,28.4,21.6,30.26,NNE,13,13.0,31.0,75,0.00,,,0.00,meteohub,2013-02-22 04:12:00,
2013-02-21 23:17:00,28.6,21.9,30.25,NW,307,23.0,31.0,76,0.00,,,0.00,meteohub,2013-02-22 04:17:00,
2013-02-21 23:22:00,28.6,22.3,30.26,NW,308,16.0,31.0,77,0.00,,,0.00,meteohub,2013-02-22 04:22:00,
2013-02-21 23:27:00,28.6,21.7,30.27,NNW,332,21.0,31.0,75,0.00,,,0.00,meteohub,2013-02-22 04:27:00,
2013-02-21 23:32:00,28.6,21.9,30.27,WNW,302,23.0,31.0,76,0.00,,,0.00,meteohub,2013-02-22 04:32:00,
2013-02-21 23:37:00,28.6,21.7,30.27,NNW,343,29.0,31.0,75,0.00,,,0.00,meteohub,2013-02-22 04:37:00,
2013-02-21 23:42:00,28.2,21.6,30.27,NNW,342,15.0,33.0,76,0.00,,,0.00,meteohub,2013-02-22 04:42:00,
2013-02-21 23:47:00,28.2,21.4,30.27,NNE,20,25.0,33.0,75,0.00,,,0.00,meteohub,2013-02-22 04:47:00,
2013-02-21 23:52:00,28.0,21.4,30.27,North,352,22.0,32.0,76,0.00,,,0.00,meteohub,2013-02-22 04:52:00,
2013-02-21 23:57:00,28.2,21.4,30.28,NNW,346,17.0,32.0,75,0.00,,,0.00,meteohub,2013-02-22 04:57:00,